createdAt,value
2022-09-04T00:04:06.560Z,100298.41
2022-09-04T00:09:14.441Z,100300.78
2022-09-04T00:14:26.260Z,100296.97
2022-09-04T00:19:35.788Z,100298.34
2022-09-04T00:24:43.109Z,100299.16
2022-09-04T00:30:03.553Z,100293.59
2022-09-04T00:35:33.152Z,100300.78
2022-09-04T00:40:40.885Z,100299.31
2022-09-04T00:46:05.046Z,100302.09
2022-09-04T00:51:40.762Z,100297.72
2022-09-04T00:57:16.275Z,100302.72
2022-09-04T01:02:23.825Z,100311.00
2022-09-04T01:07:44.559Z,100308.28
2022-09-04T01:13:09.183Z,100315.56
2022-09-04T01:18:24.445Z,100322.34
2022-09-04T01:23:35.600Z,100316.66
2022-09-04T01:28:48.206Z,100319.19
2022-09-04T01:33:55.326Z,100322.06
2022-09-04T01:38:58.874Z,100318.59
2022-09-04T01:44:00.925Z,100321.69
2022-09-04T01:49:27.518Z,100325.41
2022-09-04T01:54:37.748Z,100327.66
2022-09-04T01:59:59.856Z,100335.09
2022-09-04T02:05:08.349Z,100339.91
2022-09-04T02:10:30.602Z,100335.34
2022-09-04T02:15:43.072Z,100333.19
2022-09-04T02:20:50.689Z,100331.84
2022-09-04T02:26:03.925Z,100331.22
2022-09-04T02:31:22.045Z,100332.97
2022-09-04T02:36:55.921Z,100348.66
2022-09-04T02:42:06.992Z,100348.63
2022-09-04T02:47:14.764Z,100341.94
2022-09-04T02:52:38.820Z,100353.59
2022-09-04T02:58:18.036Z,100359.06
2022-09-04T03:03:24.627Z,100360.59
2022-09-04T03:08:36.652Z,100359.44
2022-09-04T03:13:53.206Z,100358.03
2022-09-04T03:19:08.722Z,100361.25
2022-09-04T03:24:39.986Z,100366.19
2022-09-04T03:29:51.349Z,100367.81
2022-09-04T03:35:01.289Z,100367.38
2022-09-04T03:40:36.827Z,100365.25
2022-09-04T03:45:38.297Z,100370.13
2022-09-04T03:51:01.254Z,100367.47
2022-09-04T03:56:18.260Z,100377.75
2022-09-04T04:01:28.762Z,100380.84
2022-09-04T04:06:41.811Z,100385.81
2022-09-04T04:12:01.359Z,100395.84
2022-09-04T04:17:22.551Z,100387.75
2022-09-04T04:23:05.835Z,100397.97
2022-09-04T04:28:26.911Z,100391.63
2022-09-04T04:33:47.559Z,100400.13
2022-09-04T04:39:29.485Z,100406.53
2022-09-04T04:44:59.441Z,100412.09
2022-09-04T04:50:16.258Z,100416.41
2022-09-04T04:55:38.738Z,100420.34
2022-09-04T05:01:05.167Z,100424.63
2022-09-04T05:06:09.353Z,100426.66
2022-09-04T05:11:19.637Z,100437.47
2022-09-04T05:16:54.874Z,100442.88
2022-09-04T05:22:04.288Z,100448.00
2022-09-04T05:27:15.704Z,100463.13
2022-09-04T05:32:39.342Z,100457.84
2022-09-04T05:37:53.583Z,100456.44
2022-09-04T05:43:11.715Z,100472.72
2022-09-04T05:48:26.657Z,100481.84
2022-09-04T05:53:48.124Z,100486.69
2022-09-04T05:58:59.804Z,100503.72
2022-09-04T06:04:23.473Z,100497.56
2022-09-04T06:09:38.640Z,100499.63
2022-09-04T06:15:14.778Z,100509.75
2022-09-04T06:20:39.153Z,100517.53
2022-09-04T06:26:06.248Z,100526.59
2022-09-04T06:31:20.133Z,100525.28
2022-09-04T06:36:47.060Z,100538.47
2022-09-04T06:42:26.493Z,100547.28
2022-09-04T06:47:37.340Z,100552.34
2022-09-04T06:52:47.774Z,100552.44
2022-09-04T06:58:05.548Z,100555.41
2022-09-04T07:03:31.354Z,100559.41
2022-09-04T07:08:48.049Z,100566.50
2022-09-04T07:14:16.417Z,100567.19
2022-09-04T07:19:33.002Z,100574.75
2022-09-04T07:25:07.399Z,100576.56
2022-09-04T07:30:11.305Z,100566.59
2022-09-04T07:35:34.301Z,100576.63
2022-09-04T07:40:38.964Z,100585.50
2022-09-04T07:45:51.267Z,100580.47
2022-09-04T07:50:57.359Z,100590.06
2022-09-04T07:56:13.182Z,100580.06
2022-09-04T08:01:18.062Z,100591.41
2022-09-04T08:06:30.269Z,100592.84
2022-09-04T08:11:58.990Z,100605.69
2022-09-04T08:17:25.410Z,100602.41
2022-09-04T08:22:43.680Z,100606.63
2022-09-04T08:27:51.600Z,100612.53
2022-09-04T08:32:53.114Z,100619.41
2022-09-04T08:38:13.533Z,100620.69
2022-09-04T08:43:53.562Z,100624.28
2022-09-04T08:49:46.553Z,100619.25
2022-09-04T08:54:57.087Z,100620.75
2022-09-04T09:00:20.575Z,100618.47
2022-09-04T09:05:46.799Z,100624.72
2022-09-04T09:11:10.219Z,100626.22
2022-09-04T09:16:23.521Z,100628.13
2022-09-04T09:21:43.573Z,100618.28
2022-09-04T09:26:57.920Z,100620.59
2022-09-04T09:32:20.815Z,100621.69
2022-09-04T09:37:47.777Z,100619.41
2022-09-04T09:43:17.170Z,100629.47
2022-09-04T09:48:31.914Z,100624.44
2022-09-04T09:54:04.404Z,100627.41
2022-09-04T09:59:39.664Z,100617.97
2022-09-04T10:04:59.470Z,100614.00
2022-09-04T10:10:58.420Z,100616.09
2022-09-04T10:16:27.879Z,100607.72
2022-09-04T10:22:09.111Z,100598.91
2022-09-04T10:27:20.074Z,100602.91
2022-09-04T10:32:31.834Z,100597.44
2022-09-04T10:37:38.086Z,100605.81
2022-09-04T10:42:55.290Z,100602.88
2022-09-04T10:48:15.330Z,100601.41
2022-09-04T10:53:45.173Z,100602.25
2022-09-04T10:58:53.148Z,100601.59
2022-09-04T11:04:21.015Z,100604.13
2022-09-04T11:09:31.475Z,100599.72
2022-09-04T11:15:06.232Z,100599.72
2022-09-04T11:20:32.494Z,100607.63
2022-09-04T11:26:06.007Z,100609.13
2022-09-04T11:31:42.427Z,100618.06
2022-09-04T11:37:16.900Z,100612.22
2022-09-04T11:42:42.563Z,100606.72
2022-09-04T11:47:56.830Z,100609.81
2022-09-04T11:53:23.409Z,100616.06
2022-09-04T11:58:51.057Z,100616.41
2022-09-04T12:04:23.045Z,100617.66
2022-09-04T12:09:58.653Z,100628.72
2022-09-04T12:15:12.599Z,100625.41
2022-09-04T12:20:45.397Z,100630.41
2022-09-04T12:26:18.077Z,100617.66
2022-09-04T12:31:28.591Z,100618.28
2022-09-04T12:36:52.213Z,100613.06
2022-09-04T12:42:01.031Z,100612.81
2022-09-04T12:47:13.957Z,100619.69
2022-09-04T12:52:39.528Z,100633.03
2022-09-04T12:57:57.233Z,100628.03
2022-09-04T13:03:52.770Z,100624.94
2022-09-04T13:09:07.498Z,100624.25
2022-09-04T13:14:46.793Z,100621.13
2022-09-04T13:20:11.786Z,100610.00
2022-09-04T13:25:22.452Z,100614.31
2022-09-04T13:30:25.529Z,100617.56
2022-09-04T13:36:21.355Z,100626.75
2022-09-04T13:41:59.874Z,100624.25
2022-09-04T13:47:08.987Z,100627.78
2022-09-04T13:52:17.269Z,100622.75
2022-09-04T13:57:21.481Z,100618.72
2022-09-04T14:02:26.645Z,100610.06
2022-09-04T14:07:36.156Z,100621.16
2022-09-04T14:12:54.439Z,100630.81
2022-09-04T14:18:04.250Z,100628.59
2022-09-04T14:23:21.969Z,100616.38
2022-09-04T14:29:05.342Z,100618.59
2022-09-04T14:34:13.775Z,100621.16
2022-09-04T14:39:36.210Z,100627.03
2022-09-04T14:44:44.008Z,100619.38
2022-09-04T14:49:48.608Z,100627.38
2022-09-04T14:54:54.995Z,100630.47
2022-09-04T15:00:06.015Z,100635.31
2022-09-04T15:05:25.547Z,100636.47
2022-09-04T15:10:36.273Z,100642.63
2022-09-04T15:15:42.095Z,100657.50
2022-09-04T15:20:53.754Z,100656.94
2022-09-04T15:26:05.798Z,100641.00
2022-09-04T15:31:16.825Z,100646.84
2022-09-04T15:36:23.198Z,100645.72
2022-09-04T15:41:43.715Z,100654.22
2022-09-04T15:47:04.414Z,100649.88
2022-09-04T15:52:24.370Z,100646.56
2022-09-04T15:57:36.206Z,100655.03
2022-09-04T16:03:02.375Z,100660.34
2022-09-04T16:08:43.224Z,100665.97
2022-09-04T16:13:50.607Z,100668.53
2022-09-04T16:19:21.399Z,100673.19
2022-09-04T16:24:33.448Z,100677.88
2022-09-04T16:30:00.550Z,100682.00
2022-09-04T16:35:05.681Z,100675.75
2022-09-04T16:40:28.936Z,100678.06
2022-09-04T16:45:37.404Z,100680.44
2022-09-04T16:50:48.078Z,100676.22
2022-09-04T16:55:58.118Z,100684.84
2022-09-04T17:01:09.075Z,100691.41
2022-09-04T17:06:28.495Z,100697.72
2022-09-04T17:11:37.885Z,100701.09
2022-09-04T17:17:30.609Z,100703.66
2022-09-04T17:29:03.038Z,100704.50
2022-09-04T17:29:09.735Z,100712.28
2022-09-04T17:40:08.926Z,100706.66
2022-09-04T17:40:52.537Z,100709.78
2022-09-04T17:44:43.299Z,100724.34
2022-09-04T17:49:50.622Z,100719.53
2022-09-04T17:54:53.237Z,100728.56
2022-09-04T18:00:09.128Z,100742.22
2022-09-04T18:05:36.384Z,100742.91
2022-09-04T18:10:56.502Z,100753.59
2022-09-04T18:16:11.474Z,100761.84
2022-09-04T18:21:29.154Z,100762.69
2022-09-04T18:27:01.645Z,100769.38
2022-09-04T18:37:09.779Z,100773.16
2022-09-04T18:37:47.399Z,100782.56
2022-09-04T18:50:20.838Z,100783.84
2022-09-04T18:51:01.961Z,100792.88
2022-09-04T18:53:50.519Z,100798.13
2022-09-04T18:58:57.464Z,100797.50
2022-09-04T19:04:40.840Z,100806.91
2022-09-04T19:09:55.397Z,100808.81
2022-09-04T19:14:58.742Z,100802.13
2022-09-04T19:20:06.061Z,100811.09
2022-09-04T19:25:27.244Z,100817.59
2022-09-04T19:30:34.190Z,100812.97
2022-09-04T19:35:41.707Z,100816.78
2022-09-04T19:45:54.911Z,100825.34
2022-09-04T19:46:28.087Z,100829.94
2022-09-04T19:53:36.040Z,100822.56
2022-09-04T19:57:32.521Z,100835.94
2022-09-04T20:02:40.697Z,100835.50
2022-09-04T20:08:12.577Z,100837.56
2022-09-04T20:13:26.153Z,100838.78
2022-09-04T20:18:31.725Z,100834.81
2022-09-04T20:23:43.290Z,100836.88
2022-09-04T20:28:52.077Z,100836.84
2022-09-04T20:34:19.075Z,100846.63
2022-09-04T20:39:43.531Z,100848.97
2022-09-04T20:46:26.409Z,100853.94
2022-09-04T20:52:58.244Z,100854.31
2022-09-04T20:56:39.561Z,100848.66
2022-09-04T21:03:20.092Z,100857.03
2022-09-04T21:07:37.929Z,100856.13
2022-09-04T21:13:14.187Z,100860.22
2022-09-04T21:18:45.879Z,100861.44
2022-09-04T21:24:32.190Z,100875.22
2022-09-04T21:30:03.509Z,100881.00
2022-09-04T21:35:16.356Z,100879.72
2022-09-04T21:40:51.745Z,100873.78
2022-09-04T21:46:26.037Z,100876.06
2022-09-04T21:51:33.739Z,100877.50
2022-09-04T22:02:30.592Z,100885.56
2022-09-04T22:02:38.286Z,100885.44
2022-09-04T22:13:27.646Z,100885.44
2022-09-04T22:14:03.272Z,100887.53
2022-09-04T22:19:16.191Z,100883.28
2022-09-04T22:24:30.397Z,100884.28
2022-09-04T22:30:07.484Z,100880.63
2022-09-04T22:35:41.608Z,100888.25
2022-09-04T22:40:56.828Z,100881.34
2022-09-04T22:46:17.603Z,100890.69
2022-09-04T22:51:40.533Z,100876.88
2022-09-04T22:57:02.683Z,100873.88
2022-09-04T23:02:14.099Z,100875.19
2022-09-04T23:13:48.027Z,100892.63
2022-09-04T23:13:52.627Z,100879.94
2022-09-04T23:19:50.221Z,100884.06
2022-09-04T23:26:58.297Z,100884.81
2022-09-04T23:29:53.311Z,100887.63
2022-09-04T23:35:27.995Z,100886.91
2022-09-04T23:40:42.137Z,100880.94
2022-09-04T23:45:53.888Z,100888.13
2022-09-04T23:51:21.394Z,100882.69
2022-09-04T23:56:30.054Z,100894.56
